sensor_id;sensor_type;location;lat;lon;timestamp;temperature;humidity
22635;DHT22;11484;50.858;4.384;2023-08-06T00:00:28;17.20;99.90
22635;DHT22;11484;50.858;4.384;2023-08-06T00:02:53;17.40;99.90
22635;DHT22;11484;50.858;4.384;2023-08-06T00:05:19;17.40;99.90
22635;DHT22;11484;50.858;4.384;2023-08-06T00:07:48;17.40;99.90
22635;DHT22;11484;50.858;4.384;2023-08-06T00:10:15;17.50;99.90
22635;DHT22;11484;50.858;4.384;2023-08-06T00:12:40;17.50;99.90
22635;DHT22;11484;50.858;4.384;2023-08-06T00:15:06;17.50;99.90
22635;DHT22;11484;50.858;4.384;2023-08-06T00:17:33;17.50;99.90
22635;DHT22;11484;50.858;4.384;2023-08-06T00:19:59;17.50;99.90
22635;DHT22;11484;50.858;4.384;2023-08-06T00:22:35;17.50;99.90
22635;DHT22;11484;50.858;4.384;2023-08-06T00:25:02;17.60;99.90
22635;DHT22;11484;50.858;4.384;2023-08-06T00:27:28;17.60;99.90
22635;DHT22;11484;50.858;4.384;2023-08-06T00:29:54;17.70;99.90
22635;DHT22;11484;50.858;4.384;2023-08-06T00:32:20;17.70;99.90
22635;DHT22;11484;50.858;4.384;2023-08-06T00:34:46;17.80;99.90
22635;DHT22;11484;50.858;4.384;2023-08-06T00:37:12;17.80;99.90
22635;DHT22;11484;50.858;4.384;2023-08-06T00:39:38;17.90;99.90
22635;DHT22;11484;50.858;4.384;2023-08-06T00:42:03;17.90;99.90
22635;DHT22;11484;50.858;4.384;2023-08-06T00:44:29;17.90;99.90
22635;DHT22;11484;50.858;4.384;2023-08-06T00:46:55;17.90;99.90
22635;DHT22;11484;50.858;4.384;2023-08-06T00:49:21;17.90;99.90
22635;DHT22;11484;50.858;4.384;2023-08-06T00:51:47;17.90;99.90
22635;DHT22;11484;50.858;4.384;2023-08-06T00:54:13;17.90;99.90
22635;DHT22;11484;50.858;4.384;2023-08-06T00:56:43;17.90;99.90
22635;DHT22;11484;50.858;4.384;2023-08-06T00:59:10;17.90;99.90
22635;DHT22;11484;50.858;4.384;2023-08-06T01:01:37;18.00;99.90
22635;DHT22;11484;50.858;4.384;2023-08-06T01:04:02;18.00;99.90
22635;DHT22;11484;50.858;4.384;2023-08-06T01:06:48;18.10;99.90
22635;DHT22;11484;50.858;4.384;2023-08-06T01:09:23;18.10;99.90
22635;DHT22;11484;50.858;4.384;2023-08-06T01:12:04;18.20;99.90
22635;DHT22;11484;50.858;4.384;2023-08-06T01:14:47;18.20;99.90
22635;DHT22;11484;50.858;4.384;2023-08-06T01:17:14;18.20;99.90
22635;DHT22;11484;50.858;4.384;2023-08-06T01:19:42;18.20;99.90
22635;DHT22;11484;50.858;4.384;2023-08-06T01:22:08;18.20;99.90
22635;DHT22;11484;50.858;4.384;2023-08-06T01:24:34;18.20;99.90
22635;DHT22;11484;50.858;4.384;2023-08-06T01:27:14;18.10;99.90
22635;DHT22;11484;50.858;4.384;2023-08-06T01:29:48;18.10;99.90
22635;DHT22;11484;50.858;4.384;2023-08-06T01:32:16;18.10;99.90
22635;DHT22;11484;50.858;4.384;2023-08-06T01:34:45;18.10;99.90
22635;DHT22;11484;50.858;4.384;2023-08-06T01:37:11;18.20;99.90
22635;DHT22;11484;50.858;4.384;2023-08-06T01:39:42;18.10;99.90
22635;DHT22;11484;50.858;4.384;2023-08-06T01:42:09;18.10;99.90
22635;DHT22;11484;50.858;4.384;2023-08-06T01:44:34;18.10;99.90
22635;DHT22;11484;50.858;4.384;2023-08-06T01:47:00;18.20;99.90
22635;DHT22;11484;50.858;4.384;2023-08-06T01:49:26;18.10;99.90
22635;DHT22;11484;50.858;4.384;2023-08-06T01:51:51;18.10;99.90
22635;DHT22;11484;50.858;4.384;2023-08-06T01:54:17;18.20;99.90
22635;DHT22;11484;50.858;4.384;2023-08-06T01:56:43;18.20;99.90
22635;DHT22;11484;50.858;4.384;2023-08-06T01:59:08;18.20;99.90
22635;DHT22;11484;50.858;4.384;2023-08-06T02:01:34;18.20;99.90
22635;DHT22;11484;50.858;4.384;2023-08-06T02:04:00;18.20;99.90
22635;DHT22;11484;50.858;4.384;2023-08-06T02:06:26;18.10;99.90
22635;DHT22;11484;50.858;4.384;2023-08-06T02:08:52;18.10;99.90
22635;DHT22;11484;50.858;4.384;2023-08-06T02:11:18;18.10;99.90
22635;DHT22;11484;50.858;4.384;2023-08-06T02:13:43;18.10;99.90
22635;DHT22;11484;50.858;4.384;2023-08-06T02:16:12;18.10;99.90
22635;DHT22;11484;50.858;4.384;2023-08-06T02:18:37;18.10;99.90
22635;DHT22;11484;50.858;4.384;2023-08-06T02:21:03;18.10;99.90
22635;DHT22;11484;50.858;4.384;2023-08-06T02:23:29;18.00;99.90
22635;DHT22;11484;50.858;4.384;2023-08-06T02:26:01;18.10;99.90
22635;DHT22;11484;50.858;4.384;2023-08-06T02:28:28;18.00;99.90
22635;DHT22;11484;50.858;4.384;2023-08-06T02:30:54;18.00;99.90
22635;DHT22;11484;50.858;4.384;2023-08-06T02:33:20;18.00;99.90
22635;DHT22;11484;50.858;4.384;2023-08-06T02:35:46;18.00;99.90
22635;DHT22;11484;50.858;4.384;2023-08-06T02:38:11;17.90;99.90
22635;DHT22;11484;50.858;4.384;2023-08-06T02:40:45;17.90;99.90
22635;DHT22;11484;50.858;4.384;2023-08-06T02:43:12;17.90;99.90
22635;DHT22;11484;50.858;4.384;2023-08-06T02:45:38;17.80;99.90
22635;DHT22;11484;50.858;4.384;2023-08-06T02:48:04;17.80;99.90
22635;DHT22;11484;50.858;4.384;2023-08-06T02:50:30;17.90;99.90
22635;DHT22;11484;50.858;4.384;2023-08-06T02:52:55;17.80;99.90
22635;DHT22;11484;50.858;4.384;2023-08-06T02:55:21;17.80;99.90
22635;DHT22;11484;50.858;4.384;2023-08-06T02:57:46;17.80;99.90
22635;DHT22;11484;50.858;4.384;2023-08-06T03:00:12;17.70;99.90
22635;DHT22;11484;50.858;4.384;2023-08-06T03:02:38;17.80;99.90
22635;DHT22;11484;50.858;4.384;2023-08-06T03:05:04;17.70;99.90
22635;DHT22;11484;50.858;4.384;2023-08-06T03:07:31;17.80;99.90
22635;DHT22;11484;50.858;4.384;2023-08-06T03:09:58;17.80;99.90
22635;DHT22;11484;50.858;4.384;2023-08-06T03:12:26;17.80;99.90
22635;DHT22;11484;50.858;4.384;2023-08-06T03:14:52;17.70;99.90
22635;DHT22;11484;50.858;4.384;2023-08-06T03:17:17;17.70;99.90
22635;DHT22;11484;50.858;4.384;2023-08-06T03:19:43;17.70;99.90
22635;DHT22;11484;50.858;4.384;2023-08-06T03:22:09;17.70;99.90
22635;DHT22;11484;50.858;4.384;2023-08-06T03:24:34;17.70;99.90
22635;DHT22;11484;50.858;4.384;2023-08-06T03:27:00;17.70;99.90
22635;DHT22;11484;50.858;4.384;2023-08-06T03:29:25;17.60;99.90
22635;DHT22;11484;50.858;4.384;2023-08-06T03:31:52;17.70;99.90
22635;DHT22;11484;50.858;4.384;2023-08-06T03:34:17;17.70;99.90
22635;DHT22;11484;50.858;4.384;2023-08-06T03:36:43;17.70;99.90
22635;DHT22;11484;50.858;4.384;2023-08-06T03:39:09;17.70;99.90
22635;DHT22;11484;50.858;4.384;2023-08-06T03:41:34;17.70;99.90
22635;DHT22;11484;50.858;4.384;2023-08-06T03:44:00;17.70;99.90
22635;DHT22;11484;50.858;4.384;2023-08-06T03:46:28;17.70;99.90
22635;DHT22;11484;50.858;4.384;2023-08-06T03:48:54;17.70;99.90
22635;DHT22;11484;50.858;4.384;2023-08-06T03:51:22;17.70;99.90
22635;DHT22;11484;50.858;4.384;2023-08-06T03:53:48;17.60;99.90
22635;DHT22;11484;50.858;4.384;2023-08-06T03:56:14;17.70;99.90
22635;DHT22;11484;50.858;4.384;2023-08-06T03:58:39;17.70;99.90
22635;DHT22;11484;50.858;4.384;2023-08-06T04:01:05;17.70;99.90
22635;DHT22;11484;50.858;4.384;2023-08-06T04:03:31;17.60;99.90
22635;DHT22;11484;50.858;4.384;2023-08-06T04:05:56;17.50;99.90
22635;DHT22;11484;50.858;4.384;2023-08-06T04:08:22;17.40;99.90
22635;DHT22;11484;50.858;4.384;2023-08-06T04:10:52;17.30;99.90
22635;DHT22;11484;50.858;4.384;2023-08-06T04:13:18;17.10;99.90
22635;DHT22;11484;50.858;4.384;2023-08-06T04:15:44;16.90;99.90
22635;DHT22;11484;50.858;4.384;2023-08-06T04:18:10;16.90;99.90
22635;DHT22;11484;50.858;4.384;2023-08-06T04:20:45;16.90;99.90
22635;DHT22;11484;50.858;4.384;2023-08-06T04:23:11;16.90;99.90
22635;DHT22;11484;50.858;4.384;2023-08-06T04:25:39;16.80;99.90
22635;DHT22;11484;50.858;4.384;2023-08-06T04:28:05;16.80;99.90
22635;DHT22;11484;50.858;4.384;2023-08-06T04:30:31;16.70;99.90
22635;DHT22;11484;50.858;4.384;2023-08-06T04:32:57;16.70;99.90
22635;DHT22;11484;50.858;4.384;2023-08-06T04:35:24;16.50;99.90
22635;DHT22;11484;50.858;4.384;2023-08-06T04:37:49;16.50;99.90
22635;DHT22;11484;50.858;4.384;2023-08-06T04:40:15;16.40;99.90
22635;DHT22;11484;50.858;4.384;2023-08-06T04:42:41;16.30;99.90
22635;DHT22;11484;50.858;4.384;2023-08-06T04:45:07;16.30;99.90
22635;DHT22;11484;50.858;4.384;2023-08-06T04:47:33;16.10;99.90
22635;DHT22;11484;50.858;4.384;2023-08-06T04:49:58;16.10;99.90
22635;DHT22;11484;50.858;4.384;2023-08-06T04:52:24;16.00;99.90
22635;DHT22;11484;50.858;4.384;2023-08-06T04:54:53;16.00;99.90
22635;DHT22;11484;50.858;4.384;2023-08-06T04:57:19;16.00;99.90
22635;DHT22;11484;50.858;4.384;2023-08-06T04:59:45;16.00;99.90
22635;DHT22;11484;50.858;4.384;2023-08-06T05:02:11;16.00;99.90
22635;DHT22;11484;50.858;4.384;2023-08-06T05:04:36;16.10;99.90
22635;DHT22;11484;50.858;4.384;2023-08-06T05:07:03;16.10;99.90
22635;DHT22;11484;50.858;4.384;2023-08-06T05:09:28;16.10;99.90
22635;DHT22;11484;50.858;4.384;2023-08-06T05:11:55;16.20;99.90
22635;DHT22;11484;50.858;4.384;2023-08-06T05:14:21;16.30;99.90
22635;DHT22;11484;50.858;4.384;2023-08-06T05:16:47;16.20;99.90
22635;DHT22;11484;50.858;4.384;2023-08-06T05:19:13;16.30;99.90
22635;DHT22;11484;50.858;4.384;2023-08-06T05:21:38;16.30;99.90
22635;DHT22;11484;50.858;4.384;2023-08-06T05:24:04;16.30;99.90
22635;DHT22;11484;50.858;4.384;2023-08-06T05:26:30;16.30;99.90
22635;DHT22;11484;50.858;4.384;2023-08-06T05:28:55;16.40;99.90
22635;DHT22;11484;50.858;4.384;2023-08-06T05:31:21;16.40;99.90
22635;DHT22;11484;50.858;4.384;2023-08-06T05:33:46;16.50;99.90
22635;DHT22;11484;50.858;4.384;2023-08-06T05:36:12;16.50;99.90
22635;DHT22;11484;50.858;4.384;2023-08-06T05:38:38;16.60;99.90
22635;DHT22;11484;50.858;4.384;2023-08-06T05:41:04;16.60;99.90
22635;DHT22;11484;50.858;4.384;2023-08-06T05:43:30;16.70;99.90
22635;DHT22;11484;50.858;4.384;2023-08-06T05:45:56;16.80;99.90
22635;DHT22;11484;50.858;4.384;2023-08-06T05:48:22;16.80;99.90
22635;DHT22;11484;50.858;4.384;2023-08-06T05:50:51;16.70;99.90
22635;DHT22;11484;50.858;4.384;2023-08-06T05:53:19;16.70;99.90
22635;DHT22;11484;50.858;4.384;2023-08-06T05:55:45;16.80;99.90
22635;DHT22;11484;50.858;4.384;2023-08-06T05:58:11;16.80;99.90
22635;DHT22;11484;50.858;4.384;2023-08-06T06:00:38;16.80;99.90
22635;DHT22;11484;50.858;4.384;2023-08-06T06:03:03;16.90;99.90
22635;DHT22;11484;50.858;4.384;2023-08-06T06:05:32;16.90;99.90
22635;DHT22;11484;50.858;4.384;2023-08-06T06:07:57;16.90;99.90
22635;DHT22;11484;50.858;4.384;2023-08-06T06:10:23;17.00;99.90
22635;DHT22;11484;50.858;4.384;2023-08-06T06:12:49;16.90;99.90
22635;DHT22;11484;50.858;4.384;2023-08-06T06:15:14;16.90;99.90
22635;DHT22;11484;50.858;4.384;2023-08-06T06:17:40;17.00;99.90
22635;DHT22;11484;50.858;4.384;2023-08-06T06:20:06;17.00;99.90
22635;DHT22;11484;50.858;4.384;2023-08-06T06:22:32;17.00;99.90
22635;DHT22;11484;50.858;4.384;2023-08-06T06:24:58;17.10;99.90
22635;DHT22;11484;50.858;4.384;2023-08-06T06:27:23;17.20;99.90
22635;DHT22;11484;50.858;4.384;2023-08-06T06:29:49;17.20;99.90
22635;DHT22;11484;50.858;4.384;2023-08-06T06:32:15;17.30;99.90
22635;DHT22;11484;50.858;4.384;2023-08-06T06:34:40;17.40;99.90
22635;DHT22;11484;50.858;4.384;2023-08-06T06:37:06;17.50;99.90
22635;DHT22;11484;50.858;4.384;2023-08-06T06:39:34;17.50;99.90
22635;DHT22;11484;50.858;4.384;2023-08-06T06:42:00;17.50;99.90
22635;DHT22;11484;50.858;4.384;2023-08-06T06:44:25;17.40;99.90
22635;DHT22;11484;50.858;4.384;2023-08-06T06:46:51;17.50;99.90
22635;DHT22;11484;50.858;4.384;2023-08-06T06:49:16;17.50;99.90
22635;DHT22;11484;50.858;4.384;2023-08-06T06:51:42;17.40;99.90
22635;DHT22;11484;50.858;4.384;2023-08-06T06:54:08;17.50;99.90
22635;DHT22;11484;50.858;4.384;2023-08-06T06:56:33;17.60;99.90
22635;DHT22;11484;50.858;4.384;2023-08-06T06:58:59;17.60;99.90
22635;DHT22;11484;50.858;4.384;2023-08-06T07:01:25;17.70;99.90
22635;DHT22;11484;50.858;4.384;2023-08-06T07:03:50;17.60;99.90
22635;DHT22;11484;50.858;4.384;2023-08-06T07:06:16;17.60;99.90
22635;DHT22;11484;50.858;4.384;2023-08-06T07:08:44;17.60;99.90
22635;DHT22;11484;50.858;4.384;2023-08-06T07:11:09;17.50;99.90
22635;DHT22;11484;50.858;4.384;2023-08-06T07:13:35;17.50;99.90
22635;DHT22;11484;50.858;4.384;2023-08-06T07:16:01;17.50;99.90
22635;DHT22;11484;50.858;4.384;2023-08-06T07:18:27;17.50;99.90
22635;DHT22;11484;50.858;4.384;2023-08-06T07:20:54;17.50;99.90
22635;DHT22;11484;50.858;4.384;2023-08-06T07:23:26;17.40;99.90
22635;DHT22;11484;50.858;4.384;2023-08-06T07:25:52;17.30;99.90
22635;DHT22;11484;50.858;4.384;2023-08-06T07:28:18;17.40;99.90
22635;DHT22;11484;50.858;4.384;2023-08-06T07:30:44;17.30;99.90
22635;DHT22;11484;50.858;4.384;2023-08-06T07:33:10;17.30;99.90
22635;DHT22;11484;50.858;4.384;2023-08-06T07:35:39;17.20;99.90
22635;DHT22;11484;50.858;4.384;2023-08-06T07:38:04;17.20;99.90
22635;DHT22;11484;50.858;4.384;2023-08-06T07:40:30;17.30;99.90
22635;DHT22;11484;50.858;4.384;2023-08-06T07:42:56;17.40;99.90
22635;DHT22;11484;50.858;4.384;2023-08-06T07:45:22;17.50;99.90
22635;DHT22;11484;50.858;4.384;2023-08-06T07:47:47;17.60;99.90
22635;DHT22;11484;50.858;4.384;2023-08-06T07:50:13;17.70;99.90
22635;DHT22;11484;50.858;4.384;2023-08-06T07:52:39;17.80;99.90
22635;DHT22;11484;50.858;4.384;2023-08-06T07:55:05;18.00;99.90
22635;DHT22;11484;50.858;4.384;2023-08-06T07:57:31;18.00;99.90
22635;DHT22;11484;50.858;4.384;2023-08-06T07:59:57;18.10;99.90
22635;DHT22;11484;50.858;4.384;2023-08-06T08:02:23;18.10;99.90
22635;DHT22;11484;50.858;4.384;2023-08-06T08:04:49;18.20;99.90
22635;DHT22;11484;50.858;4.384;2023-08-06T08:07:15;18.30;99.90
22635;DHT22;11484;50.858;4.384;2023-08-06T08:09:40;18.40;99.90
22635;DHT22;11484;50.858;4.384;2023-08-06T08:12:06;18.60;99.90
22635;DHT22;11484;50.858;4.384;2023-08-06T08:14:32;18.70;99.90
22635;DHT22;11484;50.858;4.384;2023-08-06T08:17:01;18.70;99.90
22635;DHT22;11484;50.858;4.384;2023-08-06T08:19:28;18.70;99.90
22635;DHT22;11484;50.858;4.384;2023-08-06T08:21:54;18.70;99.90
22635;DHT22;11484;50.858;4.384;2023-08-06T08:24:23;18.50;99.90
22635;DHT22;11484;50.858;4.384;2023-08-06T08:26:52;18.40;99.90
22635;DHT22;11484;50.858;4.384;2023-08-06T08:29:23;18.40;99.90
22635;DHT22;11484;50.858;4.384;2023-08-06T08:31:49;18.40;99.90
22635;DHT22;11484;50.858;4.384;2023-08-06T08:34:18;18.20;99.90
22635;DHT22;11484;50.858;4.384;2023-08-06T08:36:44;18.10;99.90
22635;DHT22;11484;50.858;4.384;2023-08-06T08:39:13;18.00;99.90
22635;DHT22;11484;50.858;4.384;2023-08-06T08:41:39;17.90;99.90
22635;DHT22;11484;50.858;4.384;2023-08-06T08:44:08;17.90;99.90
22635;DHT22;11484;50.858;4.384;2023-08-06T08:46:39;17.90;99.90
22635;DHT22;11484;50.858;4.384;2023-08-06T08:49:05;17.90;99.90
22635;DHT22;11484;50.858;4.384;2023-08-06T08:51:33;17.90;99.90
22635;DHT22;11484;50.858;4.384;2023-08-06T08:53:59;18.00;99.90
22635;DHT22;11484;50.858;4.384;2023-08-06T08:56:27;18.00;99.90
22635;DHT22;11484;50.858;4.384;2023-08-06T08:58:52;18.00;99.90
22635;DHT22;11484;50.858;4.384;2023-08-06T09:01:21;18.00;99.90
22635;DHT22;11484;50.858;4.384;2023-08-06T09:03:49;18.00;99.90
22635;DHT22;11484;50.858;4.384;2023-08-06T09:06:15;18.00;99.90
22635;DHT22;11484;50.858;4.384;2023-08-06T09:08:50;18.00;99.90
22635;DHT22;11484;50.858;4.384;2023-08-06T09:11:17;18.00;99.90
22635;DHT22;11484;50.858;4.384;2023-08-06T09:13:46;18.00;99.90
22635;DHT22;11484;50.858;4.384;2023-08-06T09:16:12;18.00;99.90
22635;DHT22;11484;50.858;4.384;2023-08-06T09:18:39;17.90;99.90
22635;DHT22;11484;50.858;4.384;2023-08-06T09:21:05;17.90;99.90
22635;DHT22;11484;50.858;4.384;2023-08-06T09:23:31;17.90;99.90
22635;DHT22;11484;50.858;4.384;2023-08-06T09:25:59;17.90;99.90
22635;DHT22;11484;50.858;4.384;2023-08-06T09:28:37;17.80;99.90
22635;DHT22;11484;50.858;4.384;2023-08-06T09:31:09;17.80;99.90
22635;DHT22;11484;50.858;4.384;2023-08-06T09:33:39;17.80;99.90
22635;DHT22;11484;50.858;4.384;2023-08-06T09:36:11;17.70;99.90
22635;DHT22;11484;50.858;4.384;2023-08-06T09:38:40;17.70;99.90
22635;DHT22;11484;50.858;4.384;2023-08-06T09:41:07;17.60;99.90
22635;DHT22;11484;50.858;4.384;2023-08-06T09:43:40;17.60;99.90
22635;DHT22;11484;50.858;4.384;2023-08-06T09:46:14;17.60;99.90
22635;DHT22;11484;50.858;4.384;2023-08-06T09:48:45;17.50;99.90
22635;DHT22;11484;50.858;4.384;2023-08-06T09:51:11;17.40;99.90
22635;DHT22;11484;50.858;4.384;2023-08-06T09:53:37;17.30;99.90
22635;DHT22;11484;50.858;4.384;2023-08-06T09:56:04;17.30;99.90
22635;DHT22;11484;50.858;4.384;2023-08-06T09:58:31;17.30;99.90
22635;DHT22;11484;50.858;4.384;2023-08-06T10:00:58;17.30;99.90
22635;DHT22;11484;50.858;4.384;2023-08-06T10:03:28;17.40;99.90
22635;DHT22;11484;50.858;4.384;2023-08-06T10:05:55;17.40;99.90
22635;DHT22;11484;50.858;4.384;2023-08-06T10:08:22;17.40;99.90
22635;DHT22;11484;50.858;4.384;2023-08-06T10:10:48;17.50;99.90
22635;DHT22;11484;50.858;4.384;2023-08-06T10:13:19;17.50;99.90
22635;DHT22;11484;50.858;4.384;2023-08-06T10:15:46;17.50;99.90
22635;DHT22;11484;50.858;4.384;2023-08-06T10:18:12;17.50;99.90
22635;DHT22;11484;50.858;4.384;2023-08-06T10:20:39;17.50;99.90
22635;DHT22;11484;50.858;4.384;2023-08-06T10:23:06;17.50;99.90
22635;DHT22;11484;50.858;4.384;2023-08-06T10:25:39;17.50;99.90
22635;DHT22;11484;50.858;4.384;2023-08-06T10:28:09;17.40;99.90
22635;DHT22;11484;50.858;4.384;2023-08-06T10:30:43;17.40;99.90
22635;DHT22;11484;50.858;4.384;2023-08-06T10:33:10;17.40;99.90
22635;DHT22;11484;50.858;4.384;2023-08-06T10:38:31;17.40;99.90
22635;DHT22;11484;50.858;4.384;2023-08-06T10:43:26;17.40;99.90
22635;DHT22;11484;50.858;4.384;2023-08-06T10:45:53;17.30;99.90
22635;DHT22;11484;50.858;4.384;2023-08-06T10:48:40;17.30;99.90
22635;DHT22;11484;50.858;4.384;2023-08-06T10:51:11;17.50;99.90
22635;DHT22;11484;50.858;4.384;2023-08-06T10:53:38;17.40;99.90
22635;DHT22;11484;50.858;4.384;2023-08-06T10:56:19;17.40;99.90
22635;DHT22;11484;50.858;4.384;2023-08-06T10:58:46;17.50;99.90
22635;DHT22;11484;50.858;4.384;2023-08-06T11:01:12;17.60;99.90
22635;DHT22;11484;50.858;4.384;2023-08-06T11:03:39;17.60;99.90
22635;DHT22;11484;50.858;4.384;2023-08-06T11:06:07;17.60;99.90
22635;DHT22;11484;50.858;4.384;2023-08-06T11:08:35;17.60;99.90
22635;DHT22;11484;50.858;4.384;2023-08-06T11:11:08;17.60;99.90
22635;DHT22;11484;50.858;4.384;2023-08-06T11:13:37;17.60;99.90
22635;DHT22;11484;50.858;4.384;2023-08-06T11:16:03;17.60;99.90
22635;DHT22;11484;50.858;4.384;2023-08-06T11:18:30;17.70;99.90
22635;DHT22;11484;50.858;4.384;2023-08-06T11:20:55;17.70;99.90
22635;DHT22;11484;50.858;4.384;2023-08-06T11:23:28;17.70;99.90
22635;DHT22;11484;50.858;4.384;2023-08-06T11:25:55;17.70;99.90
22635;DHT22;11484;50.858;4.384;2023-08-06T11:28:21;17.60;99.90
22635;DHT22;11484;50.858;4.384;2023-08-06T11:30:51;17.60;99.90
22635;DHT22;11484;50.858;4.384;2023-08-06T11:33:24;17.70;99.90
22635;DHT22;11484;50.858;4.384;2023-08-06T11:35:57;17.60;99.90
22635;DHT22;11484;50.858;4.384;2023-08-06T11:38:29;17.60;99.90
22635;DHT22;11484;50.858;4.384;2023-08-06T11:40:56;17.60;99.90
22635;DHT22;11484;50.858;4.384;2023-08-06T11:43:22;17.50;99.90
22635;DHT22;11484;50.858;4.384;2023-08-06T11:45:51;17.30;99.90
22635;DHT22;11484;50.858;4.384;2023-08-06T11:48:19;17.20;99.90
22635;DHT22;11484;50.858;4.384;2023-08-06T11:50:45;17.10;99.90
22635;DHT22;11484;50.858;4.384;2023-08-06T11:53:14;17.10;99.90
22635;DHT22;11484;50.858;4.384;2023-08-06T11:55:40;17.10;99.90
22635;DHT22;11484;50.858;4.384;2023-08-06T11:58:06;17.10;99.90
22635;DHT22;11484;50.858;4.384;2023-08-06T12:00:32;17.20;99.90
22635;DHT22;11484;50.858;4.384;2023-08-06T12:02:59;17.10;99.90
22635;DHT22;11484;50.858;4.384;2023-08-06T12:05:30;17.30;99.90
22635;DHT22;11484;50.858;4.384;2023-08-06T12:07:57;17.30;99.90
22635;DHT22;11484;50.858;4.384;2023-08-06T12:10:28;17.50;99.90
22635;DHT22;11484;50.858;4.384;2023-08-06T12:12:54;17.50;99.90
22635;DHT22;11484;50.858;4.384;2023-08-06T12:15:20;17.60;99.90
22635;DHT22;11484;50.858;4.384;2023-08-06T12:17:46;17.70;99.90
22635;DHT22;11484;50.858;4.384;2023-08-06T12:20:12;17.70;99.90
22635;DHT22;11484;50.858;4.384;2023-08-06T12:22:38;17.70;99.90
22635;DHT22;11484;50.858;4.384;2023-08-06T12:25:06;17.70;99.90
22635;DHT22;11484;50.858;4.384;2023-08-06T12:27:36;17.70;99.90
22635;DHT22;11484;50.858;4.384;2023-08-06T12:30:03;17.90;99.90
22635;DHT22;11484;50.858;4.384;2023-08-06T12:32:29;17.90;99.90
22635;DHT22;11484;50.858;4.384;2023-08-06T12:34:55;18.00;99.90
22635;DHT22;11484;50.858;4.384;2023-08-06T12:37:21;18.00;99.90
22635;DHT22;11484;50.858;4.384;2023-08-06T12:39:47;18.00;99.90
22635;DHT22;11484;50.858;4.384;2023-08-06T12:42:13;17.90;99.90
22635;DHT22;11484;50.858;4.384;2023-08-06T12:44:38;17.90;99.90
22635;DHT22;11484;50.858;4.384;2023-08-06T12:47:04;17.80;99.90
22635;DHT22;11484;50.858;4.384;2023-08-06T12:49:30;17.60;99.90
22635;DHT22;11484;50.858;4.384;2023-08-06T12:51:57;17.40;99.90
22635;DHT22;11484;50.858;4.384;2023-08-06T12:54:25;17.40;99.90
22635;DHT22;11484;50.858;4.384;2023-08-06T12:56:51;17.40;99.90
22635;DHT22;11484;50.858;4.384;2023-08-06T12:59:18;17.40;99.90
22635;DHT22;11484;50.858;4.384;2023-08-06T13:01:44;17.40;99.90
22635;DHT22;11484;50.858;4.384;2023-08-06T13:04:10;17.40;99.90
22635;DHT22;11484;50.858;4.384;2023-08-06T13:06:36;17.30;99.90
22635;DHT22;11484;50.858;4.384;2023-08-06T13:09:20;17.30;99.90
22635;DHT22;11484;50.858;4.384;2023-08-06T13:11:46;17.30;99.90
22635;DHT22;11484;50.858;4.384;2023-08-06T13:14:15;17.40;99.90
22635;DHT22;11484;50.858;4.384;2023-08-06T13:16:43;17.50;99.90
22635;DHT22;11484;50.858;4.384;2023-08-06T13:19:10;17.50;99.90
22635;DHT22;11484;50.858;4.384;2023-08-06T13:24:08;17.40;99.90
22635;DHT22;11484;50.858;4.384;2023-08-06T13:26:34;17.40;99.90
22635;DHT22;11484;50.858;4.384;2023-08-06T13:29:01;17.40;99.90
22635;DHT22;11484;50.858;4.384;2023-08-06T13:31:28;17.30;99.90
22635;DHT22;11484;50.858;4.384;2023-08-06T13:33:55;17.40;99.90
22635;DHT22;11484;50.858;4.384;2023-08-06T13:36:21;17.40;99.90
22635;DHT22;11484;50.858;4.384;2023-08-06T13:38:47;17.40;99.90
22635;DHT22;11484;50.858;4.384;2023-08-06T13:41:16;17.40;99.90
22635;DHT22;11484;50.858;4.384;2023-08-06T13:43:43;17.30;99.90
22635;DHT22;11484;50.858;4.384;2023-08-06T13:46:09;17.40;99.90
22635;DHT22;11484;50.858;4.384;2023-08-06T13:48:40;17.40;99.90
22635;DHT22;11484;50.858;4.384;2023-08-06T13:51:05;17.40;99.90
22635;DHT22;11484;50.858;4.384;2023-08-06T13:53:31;17.40;99.90
22635;DHT22;11484;50.858;4.384;2023-08-06T13:55:57;17.40;99.90
22635;DHT22;11484;50.858;4.384;2023-08-06T13:58:23;17.40;99.90
22635;DHT22;11484;50.858;4.384;2023-08-06T14:00:49;17.50;99.90
22635;DHT22;11484;50.858;4.384;2023-08-06T14:03:18;17.50;99.90
22635;DHT22;11484;50.858;4.384;2023-08-06T14:05:44;17.50;99.90
22635;DHT22;11484;50.858;4.384;2023-08-06T14:08:10;17.40;99.90
22635;DHT22;11484;50.858;4.384;2023-08-06T14:10:35;17.40;99.90
22635;DHT22;11484;50.858;4.384;2023-08-06T14:13:01;17.30;99.90
22635;DHT22;11484;50.858;4.384;2023-08-06T14:15:27;17.40;99.90
22635;DHT22;11484;50.858;4.384;2023-08-06T14:17:53;17.40;99.90
22635;DHT22;11484;50.858;4.384;2023-08-06T14:20:18;17.40;99.90
22635;DHT22;11484;50.858;4.384;2023-08-06T14:22:44;17.40;99.90
22635;DHT22;11484;50.858;4.384;2023-08-06T14:25:09;17.40;99.90
22635;DHT22;11484;50.858;4.384;2023-08-06T14:27:36;17.40;99.90
22635;DHT22;11484;50.858;4.384;2023-08-06T14:30:07;17.40;99.90
22635;DHT22;11484;50.858;4.384;2023-08-06T14:32:33;17.40;99.90
22635;DHT22;11484;50.858;4.384;2023-08-06T14:34:59;17.40;99.90
22635;DHT22;11484;50.858;4.384;2023-08-06T14:37:25;17.40;99.90
22635;DHT22;11484;50.858;4.384;2023-08-06T14:39:51;17.40;99.90
22635;DHT22;11484;50.858;4.384;2023-08-06T14:42:17;17.40;99.90
22635;DHT22;11484;50.858;4.384;2023-08-06T14:44:43;17.50;99.90
22635;DHT22;11484;50.858;4.384;2023-08-06T14:47:09;17.50;99.90
22635;DHT22;11484;50.858;4.384;2023-08-06T14:49:34;17.40;99.90
22635;DHT22;11484;50.858;4.384;2023-08-06T14:52:00;17.40;99.90
22635;DHT22;11484;50.858;4.384;2023-08-06T14:54:27;17.60;99.90
22635;DHT22;11484;50.858;4.384;2023-08-06T14:56:53;17.60;99.90
22635;DHT22;11484;50.858;4.384;2023-08-06T14:59:19;17.60;99.90
22635;DHT22;11484;50.858;4.384;2023-08-06T15:01:45;17.60;99.90
22635;DHT22;11484;50.858;4.384;2023-08-06T15:04:10;17.60;99.90
22635;DHT22;11484;50.858;4.384;2023-08-06T15:06:36;17.70;99.90
22635;DHT22;11484;50.858;4.384;2023-08-06T15:09:02;17.60;99.90
22635;DHT22;11484;50.858;4.384;2023-08-06T15:11:29;17.60;99.90
22635;DHT22;11484;50.858;4.384;2023-08-06T15:13:54;17.50;99.90
22635;DHT22;11484;50.858;4.384;2023-08-06T15:16:20;17.50;99.90
22635;DHT22;11484;50.858;4.384;2023-08-06T15:18:46;17.40;99.90
22635;DHT22;11484;50.858;4.384;2023-08-06T15:21:11;17.40;99.90
22635;DHT22;11484;50.858;4.384;2023-08-06T15:23:37;17.40;99.90
22635;DHT22;11484;50.858;4.384;2023-08-06T15:26:03;17.20;99.90
22635;DHT22;11484;50.858;4.384;2023-08-06T15:28:31;17.00;99.90
22635;DHT22;11484;50.858;4.384;2023-08-06T15:30:57;16.90;99.90
22635;DHT22;11484;50.858;4.384;2023-08-06T15:33:23;16.80;99.90
22635;DHT22;11484;50.858;4.384;2023-08-06T15:35:49;16.70;99.90